الصفحة الرئيسية
METAR-TAF:

METAR-TAF

مطار :

مطار تايوان تاويوان الدولي

تايبيه, تايوان

دائرة عرض: 25-05N, خط طول: 121-13E, ارتفاع: 33 متر

مراقبة الطقس الحالي

تاريخ ووقت الإصدار 35 دقيقة قبل الساعة 23:30UTC
ريح 10 عقدة من الشرق/الشمال الشرقي
درجة الحرارة 24°درجة مئوية
الرطوبة 69%
ضغط 1019 hPa
الرؤية 10 كم أو أكثر
غيوم قليلة على ارتفاع 2000 قدم
غيوم متفرقة على ارتفاع 6000 قدم

METAR: RCTP 202330Z 07010KT 9999 FEW020 SCT060 24/18 Q1019 NOSIG RMK A3009

زمن: 08:05 (00:05 UTC)

توقعات

تاريخ ووقت الإصدار 1ساعة و 5 دقيقة قبل الساعة 23:00UTC
التوقعات صالحة من21 الساعة 00 UTC إلى 22 الساعة 06 UTC
ريح 10 عقدة من الشرق/الشمال الشرقي
الرؤية 10 كم أو أكثر
غيوم قليلة على ارتفاع 2000 قدم
أصبح
من 21 الساعة 00 UTC إلى 21 الساعة 02 UTC
ريح 16 عقدة من الشمال الشرقي
أصبح
من 21 الساعة 10 UTC إلى 21 الساعة 12 UTC
ريح 12 عقدة من الشرق
مؤقت
من 21 الساعة 18 UTC إلى 21 الساعة 24 UTC
ريح 6 عقدة من الشرق
غيوم متفرقة على ارتفاع 1000 قدم
غيوم مفككة على ارتفاع 1600 قدم

TAF: RCTP 202300Z 2100/2206 07010KT 9999 FEW020 BECMG 2100/2102 05016KT BECMG 2110/2112 08012KT TEMPO 2118/2124 09006KT SCT010 BKN016

أرصاد الطقس والتوقعات من أكثر من 4000 مطار (تقارير الطقس للمطار METAR والتنبؤ بالطقس بالمطارTAF).

المحطات المتاحة هي النقط الصفراء والحمراء على الخريطة.

حرك المؤشر فوق النقطة لمعرفة اسم المحطة.

ثم انقر لمعرفة أرصاد وتوقعات الطقس.

لتغيير الخارطة: اضغط على الأزرار الخضراء مع رمز الصليب الأسود للتكبير. على الزر الأخضر مع شرطة للتصغير، أو على الأسهم الخضراء للخرائط المجاورة.


METAR-TAF: